createdAt,value
2018-12-31T00:01:46.398Z,102490.09
2018-12-31T00:04:15.046Z,102478.67
2018-12-31T00:06:43.572Z,102476.78
2018-12-31T00:09:12.208Z,102473.95
2018-12-31T00:11:43.722Z,102484.30
2018-12-31T00:14:12.437Z,102476.61
2018-12-31T00:16:41.155Z,102485.03
2018-12-31T00:19:09.615Z,102480.04
2018-12-31T00:21:38.096Z,102484.76
2018-12-31T00:24:06.556Z,102489.95
2018-12-31T00:26:35.035Z,102490.77
2018-12-31T00:29:03.609Z,102475.59
2018-12-31T00:31:32.146Z,102475.59
2018-12-31T00:34:00.622Z,102482.81
2018-12-31T00:36:29.189Z,102472.46
2018-12-31T00:38:57.765Z,102477.08
2018-12-31T00:41:26.245Z,102475.03
2018-12-31T00:43:54.794Z,102471.18
2018-12-31T00:46:23.394Z,102472.97
2018-12-31T00:48:51.852Z,102477.45
2018-12-31T00:51:23.198Z,102474.17
2018-12-31T00:53:51.783Z,102470.80
2018-12-31T00:56:20.271Z,102473.05
2018-12-31T00:58:48.994Z,102467.08
2018-12-31T01:01:17.603Z,102473.08
2018-12-31T01:03:46.079Z,102475.17
2018-12-31T01:06:14.771Z,102460.69
2018-12-31T01:08:43.377Z,102470.80
2018-12-31T01:11:11.858Z,102481.48
2018-12-31T01:13:40.414Z,102486.30
2018-12-31T01:16:08.959Z,102488.20
2018-12-31T01:18:37.460Z,102490.77
2018-12-31T01:21:06.006Z,102492.75
2018-12-31T01:23:34.519Z,102501.82
2018-12-31T01:26:03.078Z,102500.44
2018-12-31T01:28:31.532Z,102507.82
2018-12-31T01:31:02.588Z,102501.48
2018-12-31T01:33:31.190Z,102502.77
2018-12-31T01:35:59.799Z,102498.14
2018-12-31T01:38:28.462Z,102492.30
2018-12-31T01:40:57.100Z,102492.77
2018-12-31T01:43:25.764Z,102495.37
2018-12-31T01:45:54.246Z,102493.69
2018-12-31T01:48:22.715Z,102494.60
2018-12-31T01:50:51.252Z,102494.60
2018-12-31T01:53:20.055Z,102497.87
2018-12-31T01:55:48.589Z,102501.69
2018-12-31T01:58:17.196Z,102500.98
2018-12-31T02:00:45.699Z,102500.20
2018-12-31T02:03:14.179Z,102501.89
2018-12-31T02:05:42.744Z,102505.06
2018-12-31T02:08:11.300Z,102504.76
2018-12-31T02:10:39.808Z,102517.60
2018-12-31T02:13:08.262Z,102513.86
2018-12-31T02:15:36.874Z,102513.72
2018-12-31T02:18:05.458Z,102517.70
2018-12-31T02:20:34.228Z,102521.87
2018-12-31T02:23:02.956Z,102499.20
2018-12-31T02:25:31.648Z,102499.20
2018-12-31T02:28:00.125Z,102498.08
2018-12-31T02:30:28.761Z,102501.45
2018-12-31T02:32:58.779Z,102501.45
2018-12-31T02:35:27.204Z,102499.47
2018-12-31T02:37:55.690Z,102504.15
2018-12-31T02:40:24.228Z,102511.06
2018-12-31T02:42:52.812Z,102502.97
2018-12-31T02:45:21.296Z,102497.68
2018-12-31T02:47:49.760Z,102494.14
2018-12-31T02:50:18.319Z,102484.97
2018-12-31T02:52:46.792Z,102487.43
2018-12-31T02:55:15.416Z,102478.06
2018-12-31T02:57:43.876Z,102477.34
2018-12-31T03:00:12.593Z,102466.43
2018-12-31T03:02:41.204Z,102466.43
2018-12-31T03:05:09.770Z,102473.27
2018-12-31T03:07:40.950Z,102475.50
2018-12-31T03:10:10.110Z,102476.61
2018-12-31T03:12:38.721Z,102470.58
2018-12-31T03:15:07.342Z,102467.78
2018-12-31T03:17:35.880Z,102471.19
2018-12-31T03:20:04.733Z,102462.83
2018-12-31T03:22:33.464Z,102477.19
2018-12-31T03:25:02.020Z,102477.19
2018-12-31T03:27:34.355Z,102473.71
2018-12-31T03:30:05.836Z,102475.30
2018-12-31T03:32:34.388Z,102475.80
2018-12-31T03:35:03.111Z,102466.02
2018-12-31T03:37:31.834Z,102462.73
2018-12-31T03:40:00.497Z,102466.50
2018-12-31T03:42:29.106Z,102463.06
2018-12-31T03:44:57.619Z,102467.89
2018-12-31T03:47:26.364Z,102465.13
2018-12-31T03:49:54.839Z,102462.48
2018-12-31T03:52:23.527Z,102457.97
2018-12-31T03:54:52.079Z,102459.41
2018-12-31T03:57:20.633Z,102457.42
2018-12-31T03:59:49.141Z,102461.91
2018-12-31T04:02:17.802Z,102462.54
2018-12-31T04:04:46.395Z,102458.83
2018-12-31T04:07:15.407Z,102461.60
2018-12-31T04:09:43.985Z,102465.41
2018-12-31T04:12:12.470Z,102471.55
2018-12-31T04:14:40.950Z,102469.33
2018-12-31T04:17:09.593Z,102469.61
2018-12-31T04:19:38.100Z,102479.88
2018-12-31T04:22:06.558Z,102478.73
2018-12-31T04:24:35.103Z,102478.00
2018-12-31T04:27:03.612Z,102476.41
2018-12-31T04:29:32.077Z,102485.88
2018-12-31T04:32:00.519Z,102472.97
2018-12-31T04:34:28.985Z,102474.77
2018-12-31T04:36:57.505Z,102486.02
2018-12-31T04:39:26.011Z,102484.30
2018-12-31T04:41:55.479Z,102489.16
2018-12-31T04:44:24.093Z,102484.53
2018-12-31T04:46:52.551Z,102484.53
2018-12-31T04:49:21.060Z,102490.83
2018-12-31T04:51:49.608Z,102489.95
2018-12-31T04:54:18.099Z,102482.75
2018-12-31T04:56:46.961Z,102492.69
2018-12-31T04:59:15.717Z,102490.06
2018-12-31T05:01:44.288Z,102489.86
2018-12-31T05:04:12.754Z,102486.59
2018-12-31T05:06:41.402Z,102482.45
2018-12-31T05:09:09.882Z,102487.37
2018-12-31T05:11:38.389Z,102487.16
2018-12-31T05:14:06.908Z,102485.27
2018-12-31T05:16:35.401Z,102485.38
2018-12-31T05:19:03.968Z,102486.01
2018-12-31T05:21:32.458Z,102488.03
2018-12-31T05:24:01.043Z,102488.81
2018-12-31T05:26:29.729Z,102488.81
2018-12-31T05:28:58.284Z,102494.71
2018-12-31T05:31:26.792Z,102501.32
2018-12-31T05:33:55.247Z,102501.32
2018-12-31T05:36:23.707Z,102508.03
2018-12-31T05:38:52.183Z,102506.04
2018-12-31T05:41:20.648Z,102509.75
2018-12-31T05:43:49.101Z,102510.32
2018-12-31T05:46:17.591Z,102511.87
2018-12-31T05:48:46.033Z,102510.28
2018-12-31T05:51:14.655Z,102516.39
2018-12-31T05:53:43.201Z,102520.06
2018-12-31T05:56:11.693Z,102519.76
2018-12-31T05:58:40.291Z,102525.83
2018-12-31T06:01:08.847Z,102530.45
2018-12-31T06:03:37.465Z,102529.30
2018-12-31T06:06:06.314Z,102533.81
2018-12-31T06:08:34.870Z,102528.80
2018-12-31T06:11:03.455Z,102528.73
2018-12-31T06:13:31.905Z,102530.71
2018-12-31T06:16:00.444Z,102526.26
2018-12-31T06:18:28.959Z,102521.63
2018-12-31T06:20:57.593Z,102523.16
2018-12-31T06:23:26.119Z,102522.41
2018-12-31T06:25:54.599Z,102532.45
2018-12-31T06:28:23.054Z,102535.42
2018-12-31T06:30:51.540Z,102531.52
2018-12-31T06:33:20.044Z,102531.08
2018-12-31T06:35:48.501Z,102530.61
2018-12-31T06:38:17.011Z,102540.19
2018-12-31T06:40:47.182Z,102535.63
2018-12-31T06:43:15.993Z,102533.95
2018-12-31T06:45:44.501Z,102527.06
2018-12-31T06:48:13.770Z,102527.06
2018-12-31T06:50:42.251Z,102523.83
2018-12-31T06:53:10.736Z,102523.11
2018-12-31T06:55:39.237Z,102532.89
2018-12-31T06:58:09.312Z,102541.73
2018-12-31T07:00:37.735Z,102544.33
2018-12-31T07:03:06.299Z,102539.84
2018-12-31T07:05:34.803Z,102547.53
2018-12-31T07:08:03.261Z,102552.38
2018-12-31T07:10:31.846Z,102555.89
2018-12-31T07:13:00.309Z,102550.08
2018-12-31T07:15:28.726Z,102555.37
2018-12-31T07:17:57.196Z,102555.84
2018-12-31T07:20:25.692Z,102557.84
2018-12-31T07:22:54.338Z,102558.48
2018-12-31T07:25:22.805Z,102560.61
2018-12-31T07:27:51.288Z,102568.13
2018-12-31T07:30:19.798Z,102567.41
2018-12-31T07:32:48.283Z,102561.28
2018-12-31T07:35:16.906Z,102562.87
2018-12-31T07:37:45.356Z,102569.28
2018-12-31T07:40:13.951Z,102567.12
2018-12-31T07:42:42.433Z,102563.48
2018-12-31T07:45:10.969Z,102575.52
2018-12-31T07:47:39.413Z,102577.20
2018-12-31T07:50:07.880Z,102581.77
2018-12-31T07:52:36.370Z,102589.05
2018-12-31T07:55:05.170Z,102593.38
2018-12-31T07:57:33.880Z,102587.06
2018-12-31T08:00:02.480Z,102599.37
2018-12-31T08:02:31.057Z,102588.72
2018-12-31T08:04:59.864Z,102590.40
2018-12-31T08:07:28.640Z,102595.94
2018-12-31T08:09:57.154Z,102594.98
2018-12-31T08:12:25.719Z,102598.83
2018-12-31T08:14:54.176Z,102596.41
2018-12-31T08:17:22.621Z,102605.88
2018-12-31T08:19:51.105Z,102608.08
2018-12-31T08:22:19.594Z,102614.75
2018-12-31T08:24:48.068Z,102620.48
2018-12-31T08:27:16.602Z,102615.06
2018-12-31T08:29:45.109Z,102617.69
2018-12-31T08:32:14.512Z,102618.12
2018-12-31T08:34:43.086Z,102620.35
2018-12-31T08:37:11.550Z,102610.30
2018-12-31T08:39:40.155Z,102614.92
2018-12-31T08:42:08.667Z,102608.98
2018-12-31T08:44:37.351Z,102606.45
2018-12-31T08:47:06.043Z,102615.99
2018-12-31T08:49:36.187Z,102613.83
2018-12-31T08:52:04.880Z,102611.74
2018-12-31T08:54:33.353Z,102611.14
2018-12-31T08:57:01.859Z,102614.23
2018-12-31T08:59:30.395Z,102610.09
2018-12-31T09:01:58.895Z,102613.75
2018-12-31T09:04:27.375Z,102610.88
2018-12-31T09:06:55.913Z,102612.91
2018-12-31T09:09:24.462Z,102612.98
2018-12-31T09:11:52.967Z,102621.55
2018-12-31T09:14:21.431Z,102612.36
2018-12-31T09:16:52.042Z,102611.31
2018-12-31T09:19:20.614Z,102607.84
2018-12-31T09:21:49.226Z,102606.19
2018-12-31T09:24:17.807Z,102605.78
2018-12-31T09:26:46.293Z,102609.16
2018-12-31T09:29:14.977Z,102605.87
2018-12-31T09:31:43.767Z,102604.19
2018-12-31T09:34:12.316Z,102606.84
2018-12-31T09:36:40.907Z,102609.58
2018-12-31T09:39:09.465Z,102606.23
2018-12-31T09:41:38.005Z,102609.64
2018-12-31T09:44:06.568Z,102604.53
2018-12-31T09:46:35.098Z,102604.76
2018-12-31T09:49:03.579Z,102604.22
2018-12-31T09:51:32.059Z,102601.16
2018-12-31T09:54:00.693Z,102599.25
2018-12-31T09:56:29.217Z,102600.63
2018-12-31T09:58:57.816Z,102593.20
2018-12-31T10:01:26.374Z,102593.39
2018-12-31T10:03:54.950Z,102590.42
2018-12-31T10:06:23.530Z,102591.33
2018-12-31T10:08:53.466Z,102598.44
2018-12-31T10:11:21.934Z,102597.72
2018-12-31T10:13:50.511Z,102605.26
2018-12-31T10:16:19.162Z,102606.73
2018-12-31T10:18:48.000Z,102610.98
2018-12-31T10:21:16.622Z,102611.83
2018-12-31T10:23:45.157Z,102608.86
2018-12-31T10:26:13.741Z,102605.41
2018-12-31T10:28:42.227Z,102600.63
2018-12-31T10:31:10.944Z,102596.93
2018-12-31T10:33:39.416Z,102602.63
2018-12-31T10:36:08.068Z,102599.09
2018-12-31T10:38:36.610Z,102595.55
2018-12-31T10:41:05.076Z,102590.98
2018-12-31T10:43:33.569Z,102593.33
2018-12-31T10:46:02.087Z,102590.06
2018-12-31T10:48:30.585Z,102587.59
2018-12-31T10:50:59.093Z,102582.60
2018-12-31T10:53:27.741Z,102583.16
2018-12-31T10:55:56.704Z,102583.31
2018-12-31T10:58:25.397Z,102578.43
2018-12-31T11:00:54.040Z,102571.58
2018-12-31T11:03:22.581Z,102572.02
2018-12-31T11:05:51.148Z,102566.06
2018-12-31T11:08:19.729Z,102569.53
2018-12-31T11:10:48.273Z,102559.55
2018-12-31T11:13:16.896Z,102556.52
2018-12-31T11:15:45.460Z,102552.84
2018-12-31T11:18:14.148Z,102555.15
2018-12-31T11:20:42.729Z,102548.26
2018-12-31T11:23:12.242Z,102554.73
2018-12-31T11:25:40.727Z,102561.97
2018-12-31T11:28:09.213Z,102555.55
2018-12-31T11:30:37.715Z,102554.27
2018-12-31T11:33:06.519Z,102557.08
2018-12-31T11:35:35.257Z,102545.02
2018-12-31T11:38:03.818Z,102548.23
2018-12-31T11:40:32.417Z,102546.22
2018-12-31T11:43:00.997Z,102542.25
2018-12-31T11:45:29.485Z,102544.82
2018-12-31T11:47:58.070Z,102558.13
2018-12-31T11:50:26.547Z,102551.30
2018-12-31T11:52:55.017Z,102557.57
2018-12-31T11:55:23.554Z,102553.30
2018-12-31T12:04:12.712Z,102557.66
2018-12-31T12:06:41.196Z,102551.03
2018-12-31T12:09:09.808Z,102551.23
2018-12-31T12:11:38.346Z,102542.57
2018-12-31T12:14:06.840Z,102549.43
2018-12-31T12:16:35.402Z,102545.91
2018-12-31T12:19:03.983Z,102539.80
2018-12-31T12:21:32.427Z,102545.37
2018-12-31T12:24:00.927Z,102542.25
2018-12-31T12:26:29.411Z,102543.19
2018-12-31T12:28:57.879Z,102525.67
2018-12-31T12:31:26.317Z,102520.55
2018-12-31T12:33:54.763Z,102520.97
2018-12-31T12:36:23.244Z,102526.33
2018-12-31T12:38:51.675Z,102537.96
2018-12-31T12:41:20.161Z,102528.59
2018-12-31T12:43:48.611Z,102522.81
2018-12-31T12:46:17.145Z,102526.41
2018-12-31T12:48:45.647Z,102536.92
2018-12-31T12:51:14.119Z,102536.86
2018-12-31T12:53:42.724Z,102536.45
2018-12-31T12:56:12.716Z,102536.06
2018-12-31T12:58:41.269Z,102533.41
2018-12-31T13:01:09.733Z,102536.13
2018-12-31T13:03:38.170Z,102539.16
2018-12-31T13:06:06.628Z,102541.75
2018-12-31T13:08:35.056Z,102539.19
2018-12-31T13:11:03.671Z,102537.03
2018-12-31T13:13:32.130Z,102541.61
2018-12-31T13:16:00.574Z,102539.36
2018-12-31T13:18:29.137Z,102538.63
2018-12-31T13:20:57.556Z,102536.16
2018-12-31T13:23:26.407Z,102528.27
2018-12-31T13:25:54.893Z,102530.89
2018-12-31T13:28:23.332Z,102538.19
2018-12-31T13:30:51.860Z,102545.02
2018-12-31T13:33:20.331Z,102544.49
2018-12-31T13:35:49.125Z,102551.67
2018-12-31T13:38:17.760Z,102549.43
2018-12-31T13:40:46.231Z,102560.78
2018-12-31T13:43:14.834Z,102545.78
2018-12-31T13:45:43.382Z,102549.23
2018-12-31T13:48:11.844Z,102548.50
2018-12-31T13:50:40.339Z,102545.11
2018-12-31T13:53:08.805Z,102544.87
2018-12-31T13:55:37.267Z,102549.05
2018-12-31T13:58:05.719Z,102542.08
2018-12-31T14:00:35.019Z,102540.47
2018-12-31T14:03:03.497Z,102536.62
2018-12-31T14:05:31.925Z,102539.16
2018-12-31T14:08:00.400Z,102540.94
2018-12-31T14:10:28.922Z,102533.50
2018-12-31T14:12:57.349Z,102537.33
2018-12-31T14:15:25.863Z,102540.30
2018-12-31T14:17:54.381Z,102537.27
2018-12-31T14:20:22.834Z,102537.23
2018-12-31T14:22:51.405Z,102537.23
2018-12-31T14:25:19.852Z,102544.62
2018-12-31T14:27:48.285Z,102529.53
2018-12-31T14:30:17.013Z,102539.92
2018-12-31T14:32:45.529Z,102541.81
2018-12-31T14:35:13.972Z,102538.23
2018-12-31T14:37:42.417Z,102538.63
2018-12-31T14:40:10.894Z,102537.41
2018-12-31T14:42:39.351Z,102534.84
2018-12-31T14:45:07.835Z,102535.80
2018-12-31T14:47:36.299Z,102532.83
2018-12-31T14:50:05.962Z,102542.77
2018-12-31T14:52:34.590Z,102530.48
2018-12-31T14:55:03.094Z,102534.69
2018-12-31T14:57:31.605Z,102530.38
2018-12-31T15:00:00.169Z,102529.53
2018-12-31T15:02:28.625Z,102529.55
2018-12-31T15:04:57.463Z,102532.50
2018-12-31T15:07:25.920Z,102527.92
2018-12-31T15:09:54.347Z,102527.05
2018-12-31T15:12:22.857Z,102531.80
2018-12-31T15:14:51.300Z,102531.25
2018-12-31T15:17:19.918Z,102530.98
2018-12-31T15:19:48.530Z,102536.47
2018-12-31T15:22:17.010Z,102533.08
2018-12-31T15:24:45.459Z,102536.52
2018-12-31T15:27:13.922Z,102535.65
2018-12-31T15:29:42.385Z,102531.39
2018-12-31T15:32:10.869Z,102534.04
2018-12-31T15:34:39.412Z,102537.52
2018-12-31T15:37:08.008Z,102538.39
2018-12-31T15:39:36.603Z,102537.98
2018-12-31T15:42:05.140Z,102537.41
2018-12-31T15:44:33.582Z,102540.09
2018-12-31T15:47:02.100Z,102536.11
2018-12-31T15:49:32.037Z,102542.66
2018-12-31T15:52:00.540Z,102551.85
2018-12-31T15:54:29.115Z,102547.94
2018-12-31T15:56:57.631Z,102542.07
2018-12-31T15:59:26.314Z,102545.11
2018-12-31T16:01:54.778Z,102546.16
2018-12-31T16:04:23.232Z,102545.30
2018-12-31T16:06:51.717Z,102542.73
2018-12-31T16:09:20.596Z,102539.35
2018-12-31T16:11:49.114Z,102527.47
2018-12-31T16:14:17.726Z,102526.89
2018-12-31T16:16:46.181Z,102524.73
2018-12-31T16:19:14.792Z,102523.39
2018-12-31T16:21:43.532Z,102527.33
2018-12-31T16:24:12.013Z,102527.71
2018-12-31T16:26:40.494Z,102527.41
2018-12-31T16:29:08.961Z,102524.81
2018-12-31T16:31:37.508Z,102517.98
2018-12-31T16:34:05.927Z,102517.44
2018-12-31T16:36:34.423Z,102521.61
2018-12-31T16:39:03.826Z,102520.70
2018-12-31T16:41:32.284Z,102524.56
2018-12-31T16:44:00.794Z,102522.89
2018-12-31T16:46:29.229Z,102506.17
2018-12-31T16:48:57.661Z,102504.83
2018-12-31T16:51:26.216Z,102509.20
2018-12-31T16:53:54.641Z,102512.53
2018-12-31T16:56:23.084Z,102515.98
2018-12-31T16:58:51.545Z,102516.45
2018-12-31T17:01:20.267Z,102521.20
2018-12-31T17:03:48.724Z,102517.27
2018-12-31T17:06:17.230Z,102511.33
2018-12-31T17:08:45.726Z,102514.87
2018-12-31T17:11:14.177Z,102512.20
2018-12-31T17:13:42.690Z,102509.76
2018-12-31T17:16:11.210Z,102505.91
2018-12-31T17:18:39.716Z,102494.80
2018-12-31T17:21:08.146Z,102503.55
2018-12-31T17:23:36.625Z,102501.72
2018-12-31T17:26:05.157Z,102504.69
2018-12-31T17:28:33.586Z,102504.17
2018-12-31T17:31:02.071Z,102503.47
2018-12-31T17:33:30.499Z,102496.66
2018-12-31T17:35:58.932Z,102490.24
2018-12-31T17:38:27.387Z,102484.70
2018-12-31T17:40:56.116Z,102481.72
2018-12-31T17:43:24.934Z,102476.56
2018-12-31T17:45:53.365Z,102473.52
2018-12-31T17:48:21.872Z,102475.22
2018-12-31T17:50:50.336Z,102475.30
2018-12-31T17:53:18.781Z,102479.20
2018-12-31T17:55:47.244Z,102480.02
2018-12-31T17:58:15.675Z,102484.75
2018-12-31T18:00:44.334Z,102482.10
2018-12-31T18:03:13.747Z,102489.80
2018-12-31T18:05:42.227Z,102486.36
2018-12-31T18:08:10.722Z,102496.17
2018-12-31T18:10:39.304Z,102490.69
2018-12-31T18:13:07.845Z,102491.09
2018-12-31T18:15:36.366Z,102496.98
2018-12-31T18:18:04.963Z,102500.63
2018-12-31T18:20:33.675Z,102500.74
2018-12-31T18:23:02.295Z,102500.74
2018-12-31T18:25:31.110Z,102498.82
2018-12-31T18:27:59.605Z,102496.98
2018-12-31T18:30:28.111Z,102508.78
2018-12-31T18:32:56.802Z,102507.17
2018-12-31T18:35:25.436Z,102502.97
2018-12-31T18:37:53.918Z,102500.34
2018-12-31T18:40:22.484Z,102505.65
2018-12-31T18:42:50.958Z,102498.73
2018-12-31T18:45:19.776Z,102500.43
2018-12-31T18:47:48.226Z,102497.10
2018-12-31T18:50:16.707Z,102496.31
2018-12-31T18:52:45.158Z,102499.67
2018-12-31T18:55:13.747Z,102501.80
2018-12-31T18:57:42.585Z,102500.52
2018-12-31T19:00:11.357Z,102505.36
2018-12-31T19:02:40.019Z,102501.45
2018-12-31T19:05:08.451Z,102511.91
2018-12-31T19:07:36.932Z,102511.08
2018-12-31T19:10:06.199Z,102507.56
2018-12-31T19:12:34.681Z,102508.92
2018-12-31T19:15:03.218Z,102505.16
2018-12-31T19:17:31.686Z,102500.33
2018-12-31T19:20:00.355Z,102502.97
2018-12-31T19:22:28.824Z,102502.56
2018-12-31T19:24:57.809Z,102501.28
2018-12-31T19:27:26.273Z,102498.33
2018-12-31T19:29:54.721Z,102497.45
2018-12-31T19:32:23.325Z,102506.91
2018-12-31T19:34:51.932Z,102495.30
2018-12-31T19:37:20.449Z,102491.36
2018-12-31T19:39:49.094Z,102494.39
2018-12-31T19:42:17.821Z,102491.36
2018-12-31T19:44:46.429Z,102491.50
2018-12-31T19:47:14.981Z,102485.11
2018-12-31T19:49:43.446Z,102488.22
2018-12-31T19:52:12.043Z,102482.43
2018-12-31T19:54:40.737Z,102478.98
2018-12-31T19:57:09.321Z,102479.95
2018-12-31T19:59:38.047Z,102481.23
2018-12-31T20:02:06.533Z,102478.11
2018-12-31T20:04:35.270Z,102484.94
2018-12-31T20:07:03.800Z,102489.73
2018-12-31T20:09:32.301Z,102480.95
2018-12-31T20:12:00.721Z,102477.23
2018-12-31T20:14:29.269Z,102481.64
2018-12-31T20:16:57.856Z,102481.58
2018-12-31T20:19:26.479Z,102483.41
2018-12-31T20:21:55.001Z,102481.23
2018-12-31T20:24:23.607Z,102482.43
2018-12-31T20:26:52.175Z,102480.30
2018-12-31T20:29:20.719Z,102480.63
2018-12-31T20:31:49.459Z,102484.04
2018-12-31T20:34:19.649Z,102480.52
2018-12-31T20:36:48.142Z,102481.88
2018-12-31T20:39:16.726Z,102481.91
2018-12-31T20:41:46.900Z,102478.60
2018-12-31T20:44:15.338Z,102476.11
2018-12-31T20:46:43.803Z,102476.09
2018-12-31T20:49:12.325Z,102479.89
2018-12-31T20:51:40.921Z,102480.27
2018-12-31T20:54:09.395Z,102470.81
2018-12-31T20:56:37.894Z,102476.01
2018-12-31T20:59:06.379Z,102469.38
2018-12-31T21:01:34.824Z,102472.53
2018-12-31T21:04:03.376Z,102467.72
2018-12-31T21:06:31.908Z,102472.77
2018-12-31T21:09:00.499Z,102473.59
2018-12-31T21:11:29.032Z,102457.14
2018-12-31T21:13:57.487Z,102456.59
2018-12-31T21:16:27.806Z,102452.80
2018-12-31T21:18:56.389Z,102446.30
2018-12-31T21:21:24.900Z,102448.02
2018-12-31T21:23:53.414Z,102455.39
2018-12-31T21:26:22.047Z,102446.87
2018-12-31T21:28:50.716Z,102440.05
2018-12-31T21:31:19.298Z,102435.49
2018-12-31T21:33:47.896Z,102436.75
2018-12-31T21:36:17.492Z,102434.27
2018-12-31T21:38:45.940Z,102434.73
2018-12-31T21:41:14.482Z,102429.13
2018-12-31T21:43:43.070Z,102421.11
2018-12-31T21:46:11.666Z,102426.65
2018-12-31T21:48:40.273Z,102423.61
2018-12-31T21:51:08.798Z,102417.20
2018-12-31T21:53:37.673Z,102411.66
2018-12-31T21:56:06.243Z,102409.61
2018-12-31T21:58:34.815Z,102406.19
2018-12-31T22:01:03.237Z,102406.33
2018-12-31T22:03:31.696Z,102410.23
2018-12-31T22:06:00.209Z,102399.50
2018-12-31T22:08:28.750Z,102390.45
2018-12-31T22:10:57.256Z,102386.06
2018-12-31T22:13:25.832Z,102384.89
2018-12-31T22:15:54.317Z,102371.45
2018-12-31T22:18:22.813Z,102366.87
2018-12-31T22:20:51.273Z,102366.87
2018-12-31T22:23:19.727Z,102371.19
2018-12-31T22:25:48.423Z,102362.22
2018-12-31T22:28:16.880Z,102354.63
2018-12-31T22:30:45.484Z,102353.16
2018-12-31T22:33:14.586Z,102349.03
2018-12-31T22:35:43.156Z,102349.52
2018-12-31T22:38:11.677Z,102356.81
2018-12-31T22:40:40.142Z,102359.30
2018-12-31T22:43:09.532Z,102356.73
2018-12-31T22:45:38.073Z,102350.80
2018-12-31T22:48:06.615Z,102340.59
2018-12-31T22:50:35.135Z,102334.70
2018-12-31T22:53:03.645Z,102338.02
2018-12-31T22:55:32.271Z,102335.11
2018-12-31T22:58:00.749Z,102319.64
2018-12-31T23:00:29.968Z,102337.94
2018-12-31T23:02:58.418Z,102320.79
2018-12-31T23:05:27.084Z,102331.00
2018-12-31T23:07:55.579Z,102327.56
2018-12-31T23:10:24.088Z,102324.72
2018-12-31T23:12:52.677Z,102319.12
2018-12-31T23:15:21.515Z,102311.34
2018-12-31T23:17:50.211Z,102302.81
2018-12-31T23:20:18.673Z,102306.54
2018-12-31T23:22:48.265Z,102304.70
2018-12-31T23:25:16.854Z,102288.50
2018-12-31T23:27:45.435Z,102280.33
2018-12-31T23:30:13.976Z,102281.15
2018-12-31T23:32:42.518Z,102283.21
2018-12-31T23:35:11.045Z,102285.93
2018-12-31T23:37:40.097Z,102297.48
2018-12-31T23:40:09.597Z,102292.30
2018-12-31T23:42:38.069Z,102268.17
2018-12-31T23:45:09.348Z,102266.60
2018-12-31T23:47:37.949Z,102267.83
2018-12-31T23:50:08.891Z,102257.88
2018-12-31T23:52:37.333Z,102255.72
2018-12-31T23:55:07.142Z,102257.44
2018-12-31T23:57:35.709Z,102242.38
